PH-0048 weather

Union Bank Plaza Heliport
Pasig, Philippines

Public forecast

Using degrees Celsius for public forecast. Weather courtesy of forecast.io.

METAR (pilot weather report)

Closest report is Ninoy Aquino International Airport, 5.4 nm (10.0 km) SSW. Retrieved 2019/07/19 14:00 UTC (22 minutes ago):

RPLL 191400Z 27008KT 9999 FEW022 BKN090 29/26 Q1009 RESHRA NOSIG RMK A2980

TAF (pilot weather forecast)

Closest forecast is Ninoy Aquino International Airport, 5.4 nm (10.0 km) SSW. Retrieved 2019/07/19 12:00 UTC (2 hours ago):

TAF RPLL 191100Z 1912/2018 24008KT 9999 FEW023 SCT100 TX33/2006Z TN27/1921Z TEMPO 1912/1918 8000 -SHRA FEW022CB SCT023 BKN090 TEMPO 1918/1924 VCSH SCT023 BKN090